sensor_id;sensor_type;location;lat;lon;timestamp;P1;durP1;ratioP1;P2;durP2;ratioP2
28545;SDS011;15749;49.606;8.738;2022-11-18T00:02:26;1.37;;;0.87;;
28545;SDS011;15749;49.606;8.738;2022-11-18T00:05:14;0.87;;;0.80;;
28545;SDS011;15749;49.606;8.738;2022-11-18T00:08:02;1.73;;;1.00;;
28545;SDS011;15749;49.606;8.738;2022-11-18T00:10:51;1.27;;;0.90;;
28545;SDS011;15749;49.606;8.738;2022-11-18T00:13:38;0.83;;;0.70;;
28545;SDS011;15749;49.606;8.738;2022-11-18T00:16:44;1.13;;;0.80;;
28545;SDS011;15749;49.606;8.738;2022-11-18T00:19:35;0.83;;;0.80;;
28545;SDS011;15749;49.606;8.738;2022-11-18T00:22:24;1.50;;;1.10;;
28545;SDS011;15749;49.606;8.738;2022-11-18T00:25:14;1.47;;;0.90;;
28545;SDS011;15749;49.606;8.738;2022-11-18T00:28:02;3.00;;;1.23;;
28545;SDS011;15749;49.606;8.738;2022-11-18T00:30:50;1.07;;;0.97;;
28545;SDS011;15749;49.606;8.738;2022-11-18T00:33:38;1.10;;;1.00;;
28545;SDS011;15749;49.606;8.738;2022-11-18T00:36:28;0.80;;;0.80;;
28545;SDS011;15749;49.606;8.738;2022-11-18T00:39:16;1.43;;;1.03;;
28545;SDS011;15749;49.606;8.738;2022-11-18T00:42:06;1.30;;;0.70;;
28545;SDS011;15749;49.606;8.738;2022-11-18T00:45:11;1.20;;;0.90;;
28545;SDS011;15749;49.606;8.738;2022-11-18T00:47:59;0.97;;;0.80;;
28545;SDS011;15749;49.606;8.738;2022-11-18T00:50:47;0.97;;;0.87;;
28545;SDS011;15749;49.606;8.738;2022-11-18T00:53:36;1.50;;;0.83;;
28545;SDS011;15749;49.606;8.738;2022-11-18T00:56:24;1.23;;;0.83;;
28545;SDS011;15749;49.606;8.738;2022-11-18T00:59:12;0.87;;;0.60;;
28545;SDS011;15749;49.606;8.738;2022-11-18T01:02:00;1.33;;;1.20;;
28545;SDS011;15749;49.606;8.738;2022-11-18T01:04:48;1.47;;;1.20;;
28545;SDS011;15749;49.606;8.738;2022-11-18T01:07:36;1.90;;;1.17;;
28545;SDS011;15749;49.606;8.738;2022-11-18T01:10:25;1.20;;;1.10;;
28545;SDS011;15749;49.606;8.738;2022-11-18T01:13:13;1.07;;;0.90;;
28545;SDS011;15749;49.606;8.738;2022-11-18T01:16:06;1.20;;;0.83;;
28545;SDS011;15749;49.606;8.738;2022-11-18T01:18:53;0.90;;;0.80;;
28545;SDS011;15749;49.606;8.738;2022-11-18T01:21:42;1.07;;;1.00;;
28545;SDS011;15749;49.606;8.738;2022-11-18T01:24:29;1.77;;;1.10;;
28545;SDS011;15749;49.606;8.738;2022-11-18T01:27:20;1.60;;;1.10;;
28545;SDS011;15749;49.606;8.738;2022-11-18T01:30:08;1.30;;;1.10;;
28545;SDS011;15749;49.606;8.738;2022-11-18T01:32:56;1.03;;;0.93;;
28545;SDS011;15749;49.606;8.738;2022-11-18T01:35:44;2.10;;;1.03;;
28545;SDS011;15749;49.606;8.738;2022-11-18T01:38:32;1.27;;;1.03;;
28545;SDS011;15749;49.606;8.738;2022-11-18T01:41:20;1.70;;;1.20;;
28545;SDS011;15749;49.606;8.738;2022-11-18T01:47:55;1.83;;;1.10;;
28545;SDS011;15749;49.606;8.738;2022-11-18T01:50:50;1.57;;;1.10;;
28545;SDS011;15749;49.606;8.738;2022-11-18T01:53:42;1.83;;;1.30;;
28545;SDS011;15749;49.606;8.738;2022-11-18T01:56:35;1.30;;;1.20;;
28545;SDS011;15749;49.606;8.738;2022-11-18T01:59:28;1.80;;;1.37;;
28545;SDS011;15749;49.606;8.738;2022-11-18T02:02:21;1.47;;;1.37;;
28545;SDS011;15749;49.606;8.738;2022-11-18T02:36:56;1.13;;;1.00;;
28545;SDS011;15749;49.606;8.738;2022-11-18T02:39:50;2.47;;;1.30;;
28545;SDS011;15749;49.606;8.738;2022-11-18T02:42:44;1.20;;;1.10;;
28545;SDS011;15749;49.606;8.738;2022-11-18T02:45:37;1.50;;;1.10;;
28545;SDS011;15749;49.606;8.738;2022-11-18T02:48:31;1.20;;;1.10;;
28545;SDS011;15749;49.606;8.738;2022-11-18T02:51:24;1.10;;;0.97;;
28545;SDS011;15749;49.606;8.738;2022-11-18T02:54:16;1.00;;;0.90;;
28545;SDS011;15749;49.606;8.738;2022-11-18T02:57:05;0.93;;;0.70;;
28545;SDS011;15749;49.606;8.738;2022-11-18T02:59:54;1.00;;;0.90;;
28545;SDS011;15749;49.606;8.738;2022-11-18T03:02:43;1.23;;;0.90;;
28545;SDS011;15749;49.606;8.738;2022-11-18T03:05:34;1.90;;;1.20;;
28545;SDS011;15749;49.606;8.738;2022-11-18T03:08:26;1.60;;;1.20;;
28545;SDS011;15749;49.606;8.738;2022-11-18T03:11:24;2.53;;;1.00;;
28545;SDS011;15749;49.606;8.738;2022-11-18T03:14:19;1.43;;;0.90;;
28545;SDS011;15749;49.606;8.738;2022-11-18T03:17:16;0.90;;;0.80;;
28545;SDS011;15749;49.606;8.738;2022-11-18T03:20:13;1.00;;;0.73;;
28545;SDS011;15749;49.606;8.738;2022-11-18T03:23:07;1.93;;;1.00;;
28545;SDS011;15749;49.606;8.738;2022-11-18T03:26:02;0.80;;;0.80;;
28545;SDS011;15749;49.606;8.738;2022-11-18T03:28:57;0.60;;;0.60;;
28545;SDS011;15749;49.606;8.738;2022-11-18T03:31:51;0.80;;;0.80;;
28545;SDS011;15749;49.606;8.738;2022-11-18T03:34:45;1.07;;;0.80;;
28545;SDS011;15749;49.606;8.738;2022-11-18T03:37:35;1.13;;;1.00;;
28545;SDS011;15749;49.606;8.738;2022-11-18T03:40:28;1.10;;;1.00;;
28545;SDS011;15749;49.606;8.738;2022-11-18T03:43:18;2.70;;;1.13;;
28545;SDS011;15749;49.606;8.738;2022-11-18T03:46:13;1.10;;;1.00;;
28545;SDS011;15749;49.606;8.738;2022-11-18T03:49:05;0.80;;;0.80;;
28545;SDS011;15749;49.606;8.738;2022-11-18T03:51:57;1.50;;;1.30;;
28545;SDS011;15749;49.606;8.738;2022-11-18T03:54:53;1.60;;;1.50;;
28545;SDS011;15749;49.606;8.738;2022-11-18T03:57:45;1.27;;;1.17;;
28545;SDS011;15749;49.606;8.738;2022-11-18T04:00:40;1.70;;;1.40;;
28545;SDS011;15749;49.606;8.738;2022-11-18T04:03:32;1.37;;;0.97;;
28545;SDS011;15749;49.606;8.738;2022-11-18T04:06:21;1.67;;;1.10;;
28545;SDS011;15749;49.606;8.738;2022-11-18T04:09:17;1.47;;;1.20;;
28545;SDS011;15749;49.606;8.738;2022-11-18T04:12:11;1.40;;;1.30;;
28545;SDS011;15749;49.606;8.738;2022-11-18T04:15:02;1.53;;;1.20;;
28545;SDS011;15749;49.606;8.738;2022-11-18T04:17:50;2.47;;;1.90;;
28545;SDS011;15749;49.606;8.738;2022-11-18T04:20:39;2.53;;;1.60;;
28545;SDS011;15749;49.606;8.738;2022-11-18T04:23:27;2.10;;;1.90;;
28545;SDS011;15749;49.606;8.738;2022-11-18T04:26:14;2.33;;;2.13;;
28545;SDS011;15749;49.606;8.738;2022-11-18T04:29:02;1.57;;;1.47;;
28545;SDS011;15749;49.606;8.738;2022-11-18T04:31:50;1.30;;;1.20;;
28545;SDS011;15749;49.606;8.738;2022-11-18T04:34:37;1.77;;;1.40;;
28545;SDS011;15749;49.606;8.738;2022-11-18T04:37:26;1.50;;;1.30;;
28545;SDS011;15749;49.606;8.738;2022-11-18T04:40:14;1.87;;;1.50;;
28545;SDS011;15749;49.606;8.738;2022-11-18T04:43:01;1.63;;;1.53;;
28545;SDS011;15749;49.606;8.738;2022-11-18T04:45:49;1.57;;;1.47;;
28545;SDS011;15749;49.606;8.738;2022-11-18T04:48:36;1.50;;;1.40;;
28545;SDS011;15749;49.606;8.738;2022-11-18T04:51:23;1.50;;;1.40;;
28545;SDS011;15749;49.606;8.738;2022-11-18T04:54:12;1.70;;;1.60;;
28545;SDS011;15749;49.606;8.738;2022-11-18T04:57:01;1.40;;;1.30;;
28545;SDS011;15749;49.606;8.738;2022-11-18T04:59:48;1.40;;;1.30;;
28545;SDS011;15749;49.606;8.738;2022-11-18T05:02:36;2.33;;;1.27;;
28545;SDS011;15749;49.606;8.738;2022-11-18T05:05:23;1.23;;;1.13;;
28545;SDS011;15749;49.606;8.738;2022-11-18T05:08:11;1.50;;;1.40;;
28545;SDS011;15749;49.606;8.738;2022-11-18T05:11:04;1.40;;;1.30;;
28545;SDS011;15749;49.606;8.738;2022-11-18T05:14:05;1.63;;;1.53;;
28545;SDS011;15749;49.606;8.738;2022-11-18T05:16:53;1.63;;;1.53;;
28545;SDS011;15749;49.606;8.738;2022-11-18T05:19:42;1.30;;;1.20;;
28545;SDS011;15749;49.606;8.738;2022-11-18T05:22:29;1.40;;;1.30;;
28545;SDS011;15749;49.606;8.738;2022-11-18T05:25:17;1.40;;;1.30;;
28545;SDS011;15749;49.606;8.738;2022-11-18T05:28:05;1.67;;;1.57;;
28545;SDS011;15749;49.606;8.738;2022-11-18T05:30:53;1.40;;;1.30;;
28545;SDS011;15749;49.606;8.738;2022-11-18T05:33:40;1.50;;;1.40;;
28545;SDS011;15749;49.606;8.738;2022-11-18T05:36:28;1.60;;;1.50;;
28545;SDS011;15749;49.606;8.738;2022-11-18T05:39:17;1.50;;;1.40;;
28545;SDS011;15749;49.606;8.738;2022-11-18T05:42:05;1.40;;;1.30;;
28545;SDS011;15749;49.606;8.738;2022-11-18T05:45:12;1.40;;;1.30;;
28545;SDS011;15749;49.606;8.738;2022-11-18T05:48:00;1.30;;;1.23;;
28545;SDS011;15749;49.606;8.738;2022-11-18T05:50:50;1.50;;;1.40;;
28545;SDS011;15749;49.606;8.738;2022-11-18T05:53:39;1.60;;;1.50;;
28545;SDS011;15749;49.606;8.738;2022-11-18T05:56:27;2.50;;;2.30;;
28545;SDS011;15749;49.606;8.738;2022-11-18T05:59:15;2.00;;;1.90;;
28545;SDS011;15749;49.606;8.738;2022-11-18T06:02:05;2.30;;;2.10;;
28545;SDS011;15749;49.606;8.738;2022-11-18T06:05:00;1.97;;;1.73;;
28545;SDS011;15749;49.606;8.738;2022-11-18T06:07:50;2.50;;;1.50;;
28545;SDS011;15749;49.606;8.738;2022-11-18T06:10:40;1.57;;;1.20;;
28545;SDS011;15749;49.606;8.738;2022-11-18T06:13:31;0.90;;;0.70;;
28545;SDS011;15749;49.606;8.738;2022-11-18T06:16:23;0.87;;;0.67;;
28545;SDS011;15749;49.606;8.738;2022-11-18T06:19:16;0.87;;;0.77;;
28545;SDS011;15749;49.606;8.738;2022-11-18T06:22:04;0.90;;;0.57;;
28545;SDS011;15749;49.606;8.738;2022-11-18T06:24:52;1.03;;;0.60;;
28545;SDS011;15749;49.606;8.738;2022-11-18T06:27:40;0.63;;;0.50;;
28545;SDS011;15749;49.606;8.738;2022-11-18T06:30:29;0.60;;;0.53;;
28545;SDS011;15749;49.606;8.738;2022-11-18T06:33:16;0.70;;;0.50;;
28545;SDS011;15749;49.606;8.738;2022-11-18T06:36:05;0.90;;;0.70;;
28545;SDS011;15749;49.606;8.738;2022-11-18T06:38:54;0.50;;;0.50;;
28545;SDS011;15749;49.606;8.738;2022-11-18T06:41:41;2.00;;;0.70;;
28545;SDS011;15749;49.606;8.738;2022-11-18T06:44:28;0.50;;;0.50;;
28545;SDS011;15749;49.606;8.738;2022-11-18T06:47:16;0.60;;;0.50;;
28545;SDS011;15749;49.606;8.738;2022-11-18T06:50:03;0.40;;;0.40;;
28545;SDS011;15749;49.606;8.738;2022-11-18T06:52:53;0.90;;;0.47;;
28545;SDS011;15749;49.606;8.738;2022-11-18T06:55:41;0.70;;;0.40;;
28545;SDS011;15749;49.606;8.738;2022-11-18T06:58:29;0.40;;;0.40;;
28545;SDS011;15749;49.606;8.738;2022-11-18T07:01:17;0.40;;;0.40;;
28545;SDS011;15749;49.606;8.738;2022-11-18T07:03:49;0.70;;;0.40;;
28545;SDS011;15749;49.606;8.738;2022-11-18T07:06:19;0.53;;;0.47;;
28545;SDS011;15749;49.606;8.738;2022-11-18T07:08:52;0.60;;;0.40;;
28545;SDS011;15749;49.606;8.738;2022-11-18T07:11:21;0.73;;;0.50;;
28545;SDS011;15749;49.606;8.738;2022-11-18T07:13:53;0.50;;;0.50;;
28545;SDS011;15749;49.606;8.738;2022-11-18T07:16:23;0.80;;;0.60;;
28545;SDS011;15749;49.606;8.738;2022-11-18T07:18:54;0.87;;;0.50;;
28545;SDS011;15749;49.606;8.738;2022-11-18T07:21:24;0.70;;;0.50;;
28545;SDS011;15749;49.606;8.738;2022-11-18T07:23:56;0.77;;;0.50;;
28545;SDS011;15749;49.606;8.738;2022-11-18T07:26:25;0.93;;;0.40;;
28545;SDS011;15749;49.606;8.738;2022-11-18T07:28:54;0.70;;;0.50;;
28545;SDS011;15749;49.606;8.738;2022-11-18T07:31:23;0.50;;;0.50;;
28545;SDS011;15749;49.606;8.738;2022-11-18T07:33:52;0.50;;;0.40;;
28545;SDS011;15749;49.606;8.738;2022-11-18T07:36:22;0.63;;;0.40;;
28545;SDS011;15749;49.606;8.738;2022-11-18T07:39:03;0.50;;;0.40;;
28545;SDS011;15749;49.606;8.738;2022-11-18T07:41:33;0.40;;;0.40;;
28545;SDS011;15749;49.606;8.738;2022-11-18T07:44:03;0.53;;;0.40;;
28545;SDS011;15749;49.606;8.738;2022-11-18T07:46:34;0.30;;;0.30;;
28545;SDS011;15749;49.606;8.738;2022-11-18T07:49:05;0.70;;;0.50;;
28545;SDS011;15749;49.606;8.738;2022-11-18T07:51:36;0.40;;;0.40;;
28545;SDS011;15749;49.606;8.738;2022-11-18T07:54:08;1.53;;;0.60;;
28545;SDS011;15749;49.606;8.738;2022-11-18T07:56:39;0.80;;;0.70;;
28545;SDS011;15749;49.606;8.738;2022-11-18T07:59:08;1.07;;;0.70;;
28545;SDS011;15749;49.606;8.738;2022-11-18T08:01:37;0.60;;;0.60;;
28545;SDS011;15749;49.606;8.738;2022-11-18T08:04:07;1.10;;;0.90;;
28545;SDS011;15749;49.606;8.738;2022-11-18T08:06:38;1.60;;;0.80;;
28545;SDS011;15749;49.606;8.738;2022-11-18T08:09:09;0.80;;;0.80;;
28545;SDS011;15749;49.606;8.738;2022-11-18T08:11:38;1.07;;;0.80;;
28545;SDS011;15749;49.606;8.738;2022-11-18T08:14:08;1.00;;;0.80;;
28545;SDS011;15749;49.606;8.738;2022-11-18T08:16:37;0.93;;;0.83;;
28545;SDS011;15749;49.606;8.738;2022-11-18T08:19:06;1.63;;;0.70;;
28545;SDS011;15749;49.606;8.738;2022-11-18T08:21:35;0.80;;;0.80;;
28545;SDS011;15749;49.606;8.738;2022-11-18T08:24:04;0.77;;;0.70;;
28545;SDS011;15749;49.606;8.738;2022-11-18T08:26:35;2.50;;;1.70;;
28545;SDS011;15749;49.606;8.738;2022-11-18T08:29:04;2.70;;;1.70;;
28545;SDS011;15749;49.606;8.738;2022-11-18T08:31:33;1.23;;;1.13;;
28545;SDS011;15749;49.606;8.738;2022-11-18T08:34:03;1.63;;;1.00;;
28545;SDS011;15749;49.606;8.738;2022-11-18T08:36:34;0.93;;;0.80;;
28545;SDS011;15749;49.606;8.738;2022-11-18T08:39:05;0.90;;;0.60;;
28545;SDS011;15749;49.606;8.738;2022-11-18T08:41:38;0.80;;;0.77;;
28545;SDS011;15749;49.606;8.738;2022-11-18T08:44:09;1.00;;;0.90;;
28545;SDS011;15749;49.606;8.738;2022-11-18T08:46:40;1.00;;;0.90;;
28545;SDS011;15749;49.606;8.738;2022-11-18T08:49:11;1.40;;;0.80;;
28545;SDS011;15749;49.606;8.738;2022-11-18T08:51:41;1.00;;;0.70;;
28545;SDS011;15749;49.606;8.738;2022-11-18T08:54:10;1.03;;;0.70;;
28545;SDS011;15749;49.606;8.738;2022-11-18T08:56:41;0.97;;;0.70;;
28545;SDS011;15749;49.606;8.738;2022-11-18T08:59:11;0.80;;;0.80;;
28545;SDS011;15749;49.606;8.738;2022-11-18T09:01:41;1.37;;;0.90;;
28545;SDS011;15749;49.606;8.738;2022-11-18T09:04:11;1.00;;;0.77;;
28545;SDS011;15749;49.606;8.738;2022-11-18T09:06:40;0.80;;;0.70;;
28545;SDS011;15749;49.606;8.738;2022-11-18T09:09:10;1.00;;;0.80;;
28545;SDS011;15749;49.606;8.738;2022-11-18T09:11:40;1.50;;;1.23;;
28545;SDS011;15749;49.606;8.738;2022-11-18T09:14:10;1.00;;;0.90;;
28545;SDS011;15749;49.606;8.738;2022-11-18T09:17:00;1.13;;;0.70;;
28545;SDS011;15749;49.606;8.738;2022-11-18T09:19:29;1.20;;;1.00;;
28545;SDS011;15749;49.606;8.738;2022-11-18T09:22:14;1.00;;;0.77;;
28545;SDS011;15749;49.606;8.738;2022-11-18T09:24:43;0.80;;;0.80;;
28545;SDS011;15749;49.606;8.738;2022-11-18T09:27:14;1.00;;;0.70;;
28545;SDS011;15749;49.606;8.738;2022-11-18T09:29:44;0.60;;;0.50;;
28545;SDS011;15749;49.606;8.738;2022-11-18T09:32:13;0.50;;;0.50;;
28545;SDS011;15749;49.606;8.738;2022-11-18T09:34:43;0.53;;;0.50;;
28545;SDS011;15749;49.606;8.738;2022-11-18T09:37:12;0.50;;;0.50;;
28545;SDS011;15749;49.606;8.738;2022-11-18T09:39:41;0.63;;;0.40;;
28545;SDS011;15749;49.606;8.738;2022-11-18T09:42:21;0.70;;;0.50;;
28545;SDS011;15749;49.606;8.738;2022-11-18T09:45:11;0.50;;;0.50;;
28545;SDS011;15749;49.606;8.738;2022-11-18T09:47:53;1.10;;;0.53;;
28545;SDS011;15749;49.606;8.738;2022-11-18T09:50:26;0.70;;;0.50;;
28545;SDS011;15749;49.606;8.738;2022-11-18T09:53:17;0.80;;;0.50;;
28545;SDS011;15749;49.606;8.738;2022-11-18T09:55:48;0.77;;;0.50;;
28545;SDS011;15749;49.606;8.738;2022-11-18T09:58:25;0.40;;;0.40;;
28545;SDS011;15749;49.606;8.738;2022-11-18T10:01:01;2.67;;;0.73;;
28545;SDS011;15749;49.606;8.738;2022-11-18T10:03:32;1.47;;;0.70;;
28545;SDS011;15749;49.606;8.738;2022-11-18T10:06:04;0.80;;;0.70;;
28545;SDS011;15749;49.606;8.738;2022-11-18T10:08:55;0.70;;;0.70;;
28545;SDS011;15749;49.606;8.738;2022-11-18T10:11:40;0.60;;;0.60;;
28545;SDS011;15749;49.606;8.738;2022-11-18T10:14:23;0.90;;;0.80;;
28545;SDS011;15749;49.606;8.738;2022-11-18T10:17:15;0.80;;;0.70;;
28545;SDS011;15749;49.606;8.738;2022-11-18T10:20:10;1.27;;;0.83;;
28545;SDS011;15749;49.606;8.738;2022-11-18T10:22:51;1.27;;;0.80;;
28545;SDS011;15749;49.606;8.738;2022-11-18T10:25:24;1.63;;;0.73;;
28545;SDS011;15749;49.606;8.738;2022-11-18T10:27:54;1.30;;;1.17;;
28545;SDS011;15749;49.606;8.738;2022-11-18T10:30:25;1.27;;;1.10;;
28545;SDS011;15749;49.606;8.738;2022-11-18T10:32:56;1.10;;;1.00;;
28545;SDS011;15749;49.606;8.738;2022-11-18T10:35:28;1.70;;;1.17;;
28545;SDS011;15749;49.606;8.738;2022-11-18T10:38:02;1.47;;;1.20;;
28545;SDS011;15749;49.606;8.738;2022-11-18T10:40:35;1.20;;;1.07;;
28545;SDS011;15749;49.606;8.738;2022-11-18T10:43:09;1.23;;;1.03;;
28545;SDS011;15749;49.606;8.738;2022-11-18T10:45:41;1.47;;;1.00;;
28545;SDS011;15749;49.606;8.738;2022-11-18T10:48:15;1.10;;;1.00;;
28545;SDS011;15749;49.606;8.738;2022-11-18T10:50:46;1.37;;;1.20;;
28545;SDS011;15749;49.606;8.738;2022-11-18T10:53:31;1.63;;;1.30;;
28545;SDS011;15749;49.606;8.738;2022-11-18T10:56:03;1.87;;;1.77;;
28545;SDS011;15749;49.606;8.738;2022-11-18T10:58:34;1.80;;;1.70;;
28545;SDS011;15749;49.606;8.738;2022-11-18T11:01:18;1.70;;;1.60;;
28545;SDS011;15749;49.606;8.738;2022-11-18T11:03:52;1.70;;;1.60;;
28545;SDS011;15749;49.606;8.738;2022-11-18T11:06:29;2.90;;;2.30;;
28545;SDS011;15749;49.606;8.738;2022-11-18T11:09:05;2.20;;;1.70;;
28545;SDS011;15749;49.606;8.738;2022-11-18T11:11:38;1.50;;;1.40;;
28545;SDS011;15749;49.606;8.738;2022-11-18T11:14:12;1.57;;;1.40;;
28545;SDS011;15749;49.606;8.738;2022-11-18T11:16:56;1.70;;;1.60;;
28545;SDS011;15749;49.606;8.738;2022-11-18T11:19:39;2.13;;;1.60;;
28545;SDS011;15749;49.606;8.738;2022-11-18T11:22:15;2.67;;;2.03;;
28545;SDS011;15749;49.606;8.738;2022-11-18T11:24:45;1.93;;;1.80;;
28545;SDS011;15749;49.606;8.738;2022-11-18T11:30:32;1.50;;;1.40;;
28545;SDS011;15749;49.606;8.738;2022-11-18T11:36:10;2.17;;;2.00;;
28545;SDS011;15749;49.606;8.738;2022-11-18T11:39:02;3.17;;;2.77;;
28545;SDS011;15749;49.606;8.738;2022-11-18T11:41:51;3.20;;;2.90;;
28545;SDS011;15749;49.606;8.738;2022-11-18T11:44:32;2.63;;;2.43;;
28545;SDS011;15749;49.606;8.738;2022-11-18T11:47:18;2.30;;;2.10;;
28545;SDS011;15749;49.606;8.738;2022-11-18T11:50:21;2.03;;;1.73;;
28545;SDS011;15749;49.606;8.738;2022-11-18T11:53:02;2.60;;;2.00;;
28545;SDS011;15749;49.606;8.738;2022-11-18T11:55:47;2.40;;;2.20;;
28545;SDS011;15749;49.606;8.738;2022-11-18T11:58:39;2.00;;;1.90;;
28545;SDS011;15749;49.606;8.738;2022-11-18T12:01:34;2.17;;;1.90;;
28545;SDS011;15749;49.606;8.738;2022-11-18T12:04:27;2.17;;;2.07;;
28545;SDS011;15749;49.606;8.738;2022-11-18T12:07:11;2.03;;;1.83;;
28545;SDS011;15749;49.606;8.738;2022-11-18T12:09:50;2.40;;;2.20;;
28545;SDS011;15749;49.606;8.738;2022-11-18T12:12:33;2.30;;;2.17;;
28545;SDS011;15749;49.606;8.738;2022-11-18T12:15:14;3.47;;;3.13;;
28545;SDS011;15749;49.606;8.738;2022-11-18T12:17:59;3.60;;;3.37;;
28545;SDS011;15749;49.606;8.738;2022-11-18T12:20:43;3.33;;;3.13;;
28545;SDS011;15749;49.606;8.738;2022-11-18T12:23:17;2.90;;;2.70;;
28545;SDS011;15749;49.606;8.738;2022-11-18T12:25:52;2.93;;;2.40;;
28545;SDS011;15749;49.606;8.738;2022-11-18T12:28:30;2.50;;;2.30;;
28545;SDS011;15749;49.606;8.738;2022-11-18T12:34:01;2.47;;;2.27;;
28545;SDS011;15749;49.606;8.738;2022-11-18T12:36:39;2.60;;;2.40;;
28545;SDS011;15749;49.606;8.738;2022-11-18T12:48:38;2.93;;;2.13;;
28545;SDS011;15749;49.606;8.738;2022-11-18T12:54:19;1.30;;;1.20;;
28545;SDS011;15749;49.606;8.738;2022-11-18T12:56:56;2.00;;;1.53;;
28545;SDS011;15749;49.606;8.738;2022-11-18T12:59:30;1.87;;;1.63;;
28545;SDS011;15749;49.606;8.738;2022-11-18T13:02:16;1.70;;;1.60;;
28545;SDS011;15749;49.606;8.738;2022-11-18T13:05:05;1.63;;;1.53;;
28545;SDS011;15749;49.606;8.738;2022-11-18T13:07:39;1.90;;;1.63;;
28545;SDS011;15749;49.606;8.738;2022-11-18T13:10:31;2.50;;;2.03;;
28545;SDS011;15749;49.606;8.738;2022-11-18T13:13:10;1.40;;;1.30;;
28545;SDS011;15749;49.606;8.738;2022-11-18T13:15:51;1.10;;;1.00;;
28545;SDS011;15749;49.606;8.738;2022-11-18T13:18:46;1.03;;;0.90;;
28545;SDS011;15749;49.606;8.738;2022-11-18T13:21:21;1.10;;;0.70;;
28545;SDS011;15749;49.606;8.738;2022-11-18T13:24:10;1.03;;;0.63;;
28545;SDS011;15749;49.606;8.738;2022-11-18T13:26:42;0.60;;;0.60;;
28545;SDS011;15749;49.606;8.738;2022-11-18T13:29:26;0.63;;;0.40;;
28545;SDS011;15749;49.606;8.738;2022-11-18T13:32:11;0.60;;;0.40;;
28545;SDS011;15749;49.606;8.738;2022-11-18T13:34:49;0.70;;;0.30;;
28545;SDS011;15749;49.606;8.738;2022-11-18T13:37:21;0.50;;;0.40;;
28545;SDS011;15749;49.606;8.738;2022-11-18T13:39:52;1.33;;;0.50;;
28545;SDS011;15749;49.606;8.738;2022-11-18T13:42:23;0.50;;;0.50;;
28545;SDS011;15749;49.606;8.738;2022-11-18T13:44:56;0.90;;;0.77;;
28545;SDS011;15749;49.606;8.738;2022-11-18T13:47:28;0.93;;;0.73;;
28545;SDS011;15749;49.606;8.738;2022-11-18T13:50:10;1.50;;;0.90;;
28545;SDS011;15749;49.606;8.738;2022-11-18T13:52:47;1.70;;;0.80;;
28545;SDS011;15749;49.606;8.738;2022-11-18T13:55:28;1.03;;;0.60;;
28545;SDS011;15749;49.606;8.738;2022-11-18T13:58:05;1.70;;;0.83;;
28545;SDS011;15749;49.606;8.738;2022-11-18T14:01:29;1.20;;;0.70;;
28545;SDS011;15749;49.606;8.738;2022-11-18T14:04:01;1.03;;;0.63;;
28545;SDS011;15749;49.606;8.738;2022-11-18T14:06:33;1.53;;;0.67;;
28545;SDS011;15749;49.606;8.738;2022-11-18T14:09:05;1.33;;;0.60;;
28545;SDS011;15749;49.606;8.738;2022-11-18T14:12:01;0.97;;;0.77;;
28545;SDS011;15749;49.606;8.738;2022-11-18T14:14:34;0.97;;;0.80;;
28545;SDS011;15749;49.606;8.738;2022-11-18T14:17:15;1.00;;;0.80;;
28545;SDS011;15749;49.606;8.738;2022-11-18T14:19:48;1.90;;;1.20;;
28545;SDS011;15749;49.606;8.738;2022-11-18T14:22:22;1.67;;;1.37;;
28545;SDS011;15749;49.606;8.738;2022-11-18T14:24:54;3.33;;;1.90;;
28545;SDS011;15749;49.606;8.738;2022-11-18T14:27:36;3.13;;;2.00;;
28545;SDS011;15749;49.606;8.738;2022-11-18T14:30:27;1.80;;;1.30;;
28545;SDS011;15749;49.606;8.738;2022-11-18T14:33:12;1.77;;;1.17;;
28545;SDS011;15749;49.606;8.738;2022-11-18T14:36:41;1.20;;;0.80;;
28545;SDS011;15749;49.606;8.738;2022-11-18T14:39:52;0.80;;;0.80;;
28545;SDS011;15749;49.606;8.738;2022-11-18T14:43:23;0.77;;;0.77;;
28545;SDS011;15749;49.606;8.738;2022-11-18T14:45:54;1.10;;;0.80;;
28545;SDS011;15749;49.606;8.738;2022-11-18T14:48:28;0.80;;;0.80;;
28545;SDS011;15749;49.606;8.738;2022-11-18T14:50:59;1.17;;;0.80;;
28545;SDS011;15749;49.606;8.738;2022-11-18T14:53:34;1.37;;;1.07;;
28545;SDS011;15749;49.606;8.738;2022-11-18T14:56:12;1.70;;;1.03;;
28545;SDS011;15749;49.606;8.738;2022-11-18T14:58:49;1.10;;;0.87;;
28545;SDS011;15749;49.606;8.738;2022-11-18T15:01:19;0.90;;;0.80;;
28545;SDS011;15749;49.606;8.738;2022-11-18T15:04:07;0.83;;;0.80;;
28545;SDS011;15749;49.606;8.738;2022-11-18T15:06:44;0.70;;;0.70;;
28545;SDS011;15749;49.606;8.738;2022-11-18T15:09:13;0.53;;;0.47;;
28545;SDS011;15749;49.606;8.738;2022-11-18T15:11:43;1.93;;;1.50;;
28545;SDS011;15749;49.606;8.738;2022-11-18T15:14:15;1.67;;;1.23;;
28545;SDS011;15749;49.606;8.738;2022-11-18T15:16:45;3.27;;;2.97;;
28545;SDS011;15749;49.606;8.738;2022-11-18T15:19:48;2.30;;;2.10;;
28545;SDS011;15749;49.606;8.738;2022-11-18T15:22:33;1.70;;;1.40;;
28545;SDS011;15749;49.606;8.738;2022-11-18T15:25:54;2.53;;;1.40;;
28545;SDS011;15749;49.606;8.738;2022-11-18T15:29:32;1.30;;;1.20;;
28545;SDS011;15749;49.606;8.738;2022-11-18T15:32:18;1.47;;;1.33;;
28545;SDS011;15749;49.606;8.738;2022-11-18T15:35:05;2.43;;;2.23;;
28545;SDS011;15749;49.606;8.738;2022-11-18T15:38:01;3.13;;;2.50;;
28545;SDS011;15749;49.606;8.738;2022-11-18T15:40:33;3.30;;;3.00;;
28545;SDS011;15749;49.606;8.738;2022-11-18T15:43:27;2.17;;;1.97;;
28545;SDS011;15749;49.606;8.738;2022-11-18T15:45:57;1.93;;;1.83;;
28545;SDS011;15749;49.606;8.738;2022-11-18T15:48:50;3.17;;;2.00;;
28545;SDS011;15749;49.606;8.738;2022-11-18T15:51:25;1.60;;;1.50;;
28545;SDS011;15749;49.606;8.738;2022-11-18T15:53:57;1.37;;;1.20;;
28545;SDS011;15749;49.606;8.738;2022-11-18T15:56:33;1.00;;;0.90;;
28545;SDS011;15749;49.606;8.738;2022-11-18T15:59:04;2.27;;;1.40;;
28545;SDS011;15749;49.606;8.738;2022-11-18T16:01:42;1.33;;;1.10;;
28545;SDS011;15749;49.606;8.738;2022-11-18T16:04:22;2.03;;;1.40;;
28545;SDS011;15749;49.606;8.738;2022-11-18T16:07:15;2.37;;;2.17;;
28545;SDS011;15749;49.606;8.738;2022-11-18T16:09:58;2.77;;;2.47;;
28545;SDS011;15749;49.606;8.738;2022-11-18T16:13:12;2.30;;;1.90;;
28545;SDS011;15749;49.606;8.738;2022-11-18T16:15:57;2.33;;;1.60;;
28545;SDS011;15749;49.606;8.738;2022-11-18T16:18:52;1.60;;;1.50;;
28545;SDS011;15749;49.606;8.738;2022-11-18T16:21:22;1.90;;;1.30;;
28545;SDS011;15749;49.606;8.738;2022-11-18T16:24:11;1.20;;;1.10;;
28545;SDS011;15749;49.606;8.738;2022-11-18T16:27:14;1.50;;;1.10;;
28545;SDS011;15749;49.606;8.738;2022-11-18T16:29:47;1.37;;;1.20;;
28545;SDS011;15749;49.606;8.738;2022-11-18T16:32:22;1.83;;;1.10;;
28545;SDS011;15749;49.606;8.738;2022-11-18T16:35:19;1.50;;;1.10;;
28545;SDS011;15749;49.606;8.738;2022-11-18T16:38:16;2.27;;;1.87;;
28545;SDS011;15749;49.606;8.738;2022-11-18T16:40:57;2.17;;;1.83;;
28545;SDS011;15749;49.606;8.738;2022-11-18T16:44:07;2.00;;;1.30;;
28545;SDS011;15749;49.606;8.738;2022-11-18T16:46:53;1.93;;;1.70;;
28545;SDS011;15749;49.606;8.738;2022-11-18T16:49:25;2.40;;;2.20;;
28545;SDS011;15749;49.606;8.738;2022-11-18T16:52:05;2.60;;;2.10;;
28545;SDS011;15749;49.606;8.738;2022-11-18T16:54:40;2.40;;;2.10;;
28545;SDS011;15749;49.606;8.738;2022-11-18T16:57:13;2.70;;;2.50;;
28545;SDS011;15749;49.606;8.738;2022-11-18T16:59:57;3.13;;;2.70;;
28545;SDS011;15749;49.606;8.738;2022-11-18T17:02:35;3.43;;;2.97;;
28545;SDS011;15749;49.606;8.738;2022-11-18T17:05:55;4.07;;;3.67;;
28545;SDS011;15749;49.606;8.738;2022-11-18T17:08:36;3.60;;;3.20;;
28545;SDS011;15749;49.606;8.738;2022-11-18T17:11:25;2.20;;;2.00;;
28545;SDS011;15749;49.606;8.738;2022-11-18T17:14:24;4.40;;;2.20;;
28545;SDS011;15749;49.606;8.738;2022-11-18T17:17:24;3.23;;;1.93;;
28545;SDS011;15749;49.606;8.738;2022-11-18T17:20:06;2.30;;;1.77;;
28545;SDS011;15749;49.606;8.738;2022-11-18T17:22:57;1.50;;;1.40;;